Time;durP1;ratioP1;P1;durP2;ratioP2;P2;SDS_P1;SDS_P2;PMS_P1;PMS_P2;Temp;Humidity;BMP_temperature;BMP_pressure;BME280_temperature;BME280_humidity;BME280_pressure;Samples;Min_cycle;Max_cycle;Signal;HPM_P1;HPM_P2
2021/06/07 00:02:00;;;;;;;8.38;3.65;;;13.10;99.90;;;;;;5001733;28;20403;-84
2021/06/07 00:04:57;;;;;;;7.85;4.25;;;13.00;99.90;;;;;;4998138;28;20053;-84
2021/06/07 00:07:28;;;;;;;7.28;4.18;;;13.00;99.90;;;;;;5022629;28;20033;-83
2021/06/07 00:09:57;;;;;;;4.38;4.07;;;13.00;99.90;;;;;;5001114;28;21497;-83
2021/06/07 00:12:31;;;;;;;4.95;4.38;;;13.00;99.90;;;;;;5005315;28;20060;-83
2021/06/07 00:15:10;;;;;;;7.20;4.32;;;12.90;99.90;;;;;;4984865;28;20132;-83
2021/06/07 00:17:36;;;;;;;4.43;3.90;;;13.10;99.90;;;;;;4999176;28;20042;-84
2021/06/07 00:20:10;;;;;;;5.82;4.28;;;13.00;99.90;;;;;;5020826;28;20042;-83
2021/06/07 00:22:35;;;;;;;4.53;4.13;;;13.00;99.90;;;;;;5016799;28;20087;-83
2021/06/07 00:25:04;;;;;;;6.38;4.65;;;13.40;99.90;;;;;;5018657;28;20480;-83
2021/06/07 00:27:30;;;;;;;5.32;4.45;;;13.00;99.90;;;;;;5016827;28;20077;-83
2021/06/07 00:29:55;;;;;;;5.03;4.50;;;13.00;99.90;;;;;;5020250;28;20124;-84
2021/06/07 00:32:21;;;;;;;6.53;4.72;;;13.10;99.90;;;;;;5003028;28;20056;-84
2021/06/07 00:34:48;;;;;;;6.88;4.68;;;13.10;99.90;;;;;;5020204;28;20823;-84
2021/06/07 00:37:16;;;;;;;5.20;4.70;;;13.10;99.90;;;;;;4982250;28;20065;-84
2021/06/07 00:39:48;;;;;;;5.00;4.60;;;13.10;99.90;;;;;;5002100;28;20072;-84
2021/06/07 00:42:14;;;;;;;6.30;4.75;;;13.10;99.90;;;;;;4985559;28;20039;-84
2021/06/07 00:44:41;;;;;;;4.47;4.18;;;13.10;99.90;;;;;;5004539;28;20068;-84
2021/06/07 00:47:09;;;;;;;5.88;4.43;;;13.20;99.90;;;;;;4982261;28;20591;-84
2021/06/07 00:49:35;;;;;;;5.97;4.70;;;13.20;99.90;;;;;;5002146;28;20041;-83
2021/06/07 00:52:00;;;;;;;8.70;4.43;;;13.20;99.90;;;;;;5002944;28;20573;-84
2021/06/07 00:54:27;;;;;;;5.68;4.45;;;13.20;99.90;;;;;;5004471;28;20034;-83
2021/06/07 00:56:53;;;;;;;5.30;4.60;;;13.70;99.90;;;;;;4997595;28;20044;-83
2021/06/07 00:59:19;;;;;;;4.65;4.25;;;13.20;99.90;;;;;;4997435;28;20937;-83
2021/06/07 01:01:45;;;;;;;8.60;4.53;;;13.20;99.90;;;;;;5016478;28;20044;-83
2021/06/07 01:04:12;;;;;;;7.15;4.40;;;13.70;99.90;;;;;;4981412;28;20128;-84
2021/06/07 01:06:38;;;;;;;6.18;4.47;;;13.30;99.90;;;;;;5014296;28;20068;-84
2021/06/07 01:09:06;;;;;;;5.50;4.47;;;13.20;99.90;;;;;;4997241;28;20128;-84
2021/06/07 01:11:33;;;;;;;4.53;3.97;;;13.20;99.90;;;;;;4999159;28;20034;-84
2021/06/07 01:14:02;;;;;;;8.88;4.90;;;13.20;99.90;;;;;;4985112;28;20053;-84
2021/06/07 01:16:32;;;;;;;8.20;4.53;;;13.20;99.90;;;;;;5015674;28;20049;-83
2021/06/07 01:18:58;;;;;;;7.32;4.75;;;13.20;99.90;;;;;;5017891;28;20408;-83
2021/06/07 01:21:33;;;;;;;;;;;13.20;99.90;;;;;;5016776;28;20033;-83
2021/06/07 01:23:59;;;;;;;5.60;4.60;;;13.20;99.90;;;;;;4999805;28;19927;-83
2021/06/07 01:26:26;;;;;;;7.65;5.53;;;13.20;99.90;;;;;;5015893;28;20095;-83
2021/06/07 01:28:54;;;;;;;6.93;4.75;;;13.20;99.90;;;;;;5003525;28;20112;-83
2021/06/07 01:31:22;;;;;;;7.57;4.45;;;13.10;99.90;;;;;;5012879;28;20040;-83
2021/06/07 01:33:51;;;;;;;6.47;5.13;;;13.10;99.90;;;;;;4968683;28;20049;-83
2021/06/07 01:36:18;;;;;;;5.70;4.90;;;13.10;99.90;;;;;;4984328;28;20510;-83
2021/06/07 01:38:44;;;;;;;5.35;4.53;;;13.00;99.90;;;;;;5016461;28;20041;-83
2021/06/07 01:41:13;;;;;;;11.18;6.25;;;13.00;99.90;;;;;;5016713;28;20037;-83
2021/06/07 01:43:40;;;;;;;8.20;5.88;;;13.00;99.90;;;;;;5019407;28;20044;-83
2021/06/07 01:46:07;;;;;;;7.50;5.63;;;13.00;99.90;;;;;;5002188;28;20045;-83
2021/06/07 01:48:33;;;;;;;5.13;4.38;;;12.90;99.90;;;;;;5002090;28;20044;-83
2021/06/07 01:51:02;;;;;;;7.90;4.85;;;12.90;99.90;;;;;;4980773;28;20746;-83
2021/06/07 01:53:28;;;;;;;5.85;4.95;;;12.90;99.90;;;;;;5031233;28;20060;-83
2021/06/07 01:55:59;;;;;;;7.90;5.68;;;12.90;99.90;;;;;;4997259;28;20120;-83
2021/06/07 01:58:25;;;;;;;5.65;5.10;;;13.30;99.90;;;;;;5020991;28;20068;-83
2021/06/07 02:00:57;;;;;;;6.88;6.20;;;12.80;99.90;;;;;;5020076;28;20148;-83
2021/06/07 02:03:23;;;;;;;6.20;5.70;;;12.80;99.90;;;;;;5017646;28;20400;-84
2021/06/07 02:05:54;;;;;;;6.82;6.20;;;13.10;99.90;;;;;;5015986;28;20041;-84
2021/06/07 02:08:20;;;;;;;6.32;5.07;;;12.70;99.90;;;;;;5018693;28;20085;-84
2021/06/07 02:10:52;;;;;;;8.05;6.00;;;12.70;99.90;;;;;;5020031;28;20144;-84
2021/06/07 02:13:19;;;;;;;8.15;5.32;;;12.70;99.90;;;;;;5018523;28;20090;-83
2021/06/07 02:16:19;;;;;;;6.13;5.53;;;12.90;99.90;;;;;;5015618;28;20801;-84
2021/06/07 02:18:45;;;;;;;6.70;5.43;;;12.60;99.90;;;;;;4999212;28;20061;-82
2021/06/07 02:21:12;;;;;;;6.25;5.43;;;12.50;99.90;;;;;;5017121;28;20033;-83
2021/06/07 02:23:39;;;;;;;8.20;5.82;;;12.50;99.90;;;;;;5018943;28;20072;-84
2021/06/07 02:26:07;;;;;;;6.68;5.72;;;12.50;99.90;;;;;;5016540;28;20515;-83
2021/06/07 02:28:33;;;;;;;9.88;5.68;;;12.40;99.90;;;;;;5000014;28;20138;-83
2021/06/07 02:31:00;;;;;;;6.97;5.47;;;12.40;99.90;;;;;;5022849;28;20042;-83
2021/06/07 02:33:26;;;;;;;6.40;5.80;;;12.40;99.90;;;;;;5026302;28;20050;-84
2021/06/07 02:35:52;;;;;;;5.82;5.32;;;12.30;99.90;;;;;;5026449;28;20045;-83
2021/06/07 02:38:18;;;;;;;6.93;6.22;;;12.30;99.90;;;;;;5026603;28;20048;-83
2021/06/07 02:40:46;;;;;;;6.13;5.60;;;12.30;99.90;;;;;;5027703;28;20400;-83
2021/06/07 02:43:13;;;;;;;7.68;5.97;;;12.30;99.90;;;;;;5042319;28;20044;-83
2021/06/07 02:45:40;;;;;;;8.30;5.90;;;12.20;99.90;;;;;;5011503;28;20042;-83
2021/06/07 02:48:06;;;;;;;9.10;6.35;;;12.20;99.90;;;;;;5026291;28;20037;-83
2021/06/07 02:50:35;;;;;;;6.20;5.70;;;12.20;99.90;;;;;;5030160;28;20403;-83
2021/06/07 02:53:01;;;;;;;6.15;5.55;;;12.20;99.90;;;;;;5026482;28;20041;-82
2021/06/07 02:55:29;;;;;;;5.78;5.15;;;12.10;99.90;;;;;;5023963;28;20755;-83
2021/06/07 02:57:56;;;;;;;7.35;5.78;;;12.10;99.90;;;;;;5005902;28;20073;-83
2021/06/07 03:00:29;;;;;;;6.50;5.78;;;12.10;99.90;;;;;;5006156;28;20120;-83
2021/06/07 03:02:57;;;;;;;8.18;6.40;;;12.10;99.90;;;;;;5020550;28;20060;-83
2021/06/07 03:05:23;;;;;;;7.93;5.68;;;12.00;99.90;;;;;;5017834;28;20099;-83
2021/06/07 03:07:49;;;;;;;6.28;5.68;;;12.00;99.90;;;;;;5008270;28;20152;-83
2021/06/07 03:10:15;;;;;;;6.47;5.55;;;12.00;99.90;;;;;;5021373;28;20821;-83
2021/06/07 03:12:41;;;;;;;7.25;5.95;;;11.90;99.90;;;;;;5018752;28;20039;-83
2021/06/07 03:15:10;;;;;;;7.40;6.05;;;12.00;99.90;;;;;;5016794;28;20795;-83
2021/06/07 03:17:36;;;;;;;6.80;6.07;;;11.90;99.90;;;;;;5004492;28;20553;-83
2021/06/07 03:20:05;;;;;;;6.80;6.20;;;11.90;99.90;;;;;;5023036;28;20032;-83
2021/06/07 03:22:31;;;;;;;7.03;6.43;;;11.90;99.90;;;;;;5021355;28;20163;-83
2021/06/07 03:24:57;;;;;;;6.85;6.15;;;11.90;99.90;;;;;;5018789;28;20041;-82
2021/06/07 03:27:23;;;;;;;7.82;6.32;;;11.90;99.90;;;;;;5021495;28;20041;-83
2021/06/07 03:29:48;;;;;;;6.88;5.90;;;11.90;99.90;;;;;;5018183;28;20034;-84
2021/06/07 03:32:15;;;;;;;6.72;6.13;;;12.20;99.90;;;;;;5019462;28;20053;-83
2021/06/07 03:34:41;;;;;;;9.65;6.10;;;12.00;99.90;;;;;;5006105;28;20033;-83
2021/06/07 03:37:07;;;;;;;7.40;6.60;;;12.00;99.90;;;;;;5020809;28;20053;-84
2021/06/07 03:39:33;;;;;;;7.90;6.07;;;12.00;99.90;;;;;;5018059;28;20484;-83
2021/06/07 03:41:59;;;;;;;7.32;6.63;;;12.50;99.90;;;;;;5019404;28;20033;-84
2021/06/07 03:44:24;;;;;;;8.82;7.28;;;12.00;99.90;;;;;;5018779;28;20040;-84
2021/06/07 03:46:50;;;;;;;7.68;5.85;;;12.00;99.90;;;;;;5021313;28;20416;-83
2021/06/07 03:49:16;;;;;;;8.57;6.85;;;12.00;99.90;;;;;;5020444;28;20858;-83
2021/06/07 03:51:42;;;;;;;9.77;6.60;;;12.10;99.90;;;;;;5020059;28;20472;-83
2021/06/07 03:54:08;;;;;;;8.38;6.15;;;12.10;99.90;;;;;;5018866;28;20412;-83
2021/06/07 03:56:33;;;;;;;17.00;7.85;;;12.10;99.90;;;;;;5018733;28;20128;-83
2021/06/07 04:02:40;;;;;;;7.72;5.80;;;12.10;99.90;;;;;;5017859;28;20052;-83
2021/06/07 04:05:07;;;;;;;7.68;5.85;;;12.10;99.90;;;;;;5020267;28;20486;-83
2021/06/07 04:07:34;;;;;;;8.45;7.18;;;12.20;99.90;;;;;;5019700;28;20116;-83
2021/06/07 04:10:03;;;;;;;8.02;6.70;;;12.20;99.90;;;;;;5003370;28;20099;-83
2021/06/07 04:12:29;;;;;;;10.32;7.07;;;12.30;99.90;;;;;;5016800;28;20037;-83
2021/06/07 04:14:55;;;;;;;8.27;6.35;;;12.20;99.90;;;;;;5019701;28;20190;-83
2021/06/07 04:17:21;;;;;;;11.45;6.68;;;12.30;99.90;;;;;;5016969;28;20566;-83
2021/06/07 04:19:47;;;;;;;7.15;6.40;;;12.40;99.90;;;;;;5019750;28;20046;-83
2021/06/07 04:22:13;;;;;;;6.15;5.57;;;12.50;99.90;;;;;;5017245;28;20030;-83
2021/06/07 04:24:38;;;;;;;10.07;6.25;;;12.50;99.90;;;;;;5023158;28;20045;-83
2021/06/07 04:27:06;;;;;;;8.98;6.03;;;12.70;99.90;;;;;;5004252;28;20029;-83
2021/06/07 04:29:32;;;;;;;9.95;5.88;;;12.80;99.90;;;;;;5024022;28;20080;-83
2021/06/07 04:31:58;;;;;;;9.75;6.32;;;12.90;99.90;;;;;;5022256;28;20488;-83
2021/06/07 04:34:24;;;;;;;7.97;5.90;;;13.00;99.90;;;;;;5019873;28;20052;-83
2021/06/07 04:36:50;;;;;;;7.07;5.70;;;13.10;99.90;;;;;;5017979;28;20045;-83
2021/06/07 04:39:16;;;;;;;7.88;6.13;;;13.30;99.90;;;;;;5022887;28;20044;-84
2021/06/07 04:41:41;;;;;;;6.93;5.32;;;13.40;99.90;;;;;;5019437;28;20037;-84
2021/06/07 04:44:07;;;;;;;9.90;5.65;;;13.40;99.90;;;;;;5019102;28;20049;-85
2021/06/07 04:46:33;;;;;;;6.57;5.55;;;13.50;99.90;;;;;;5003797;28;20063;-86
2021/06/07 04:48:59;;;;;;;6.63;4.15;;;14.00;99.90;;;;;;5017631;28;20048;-84
2021/06/07 04:51:25;;;;;;;4.97;3.97;;;14.20;99.90;;;;;;5010868;28;20041;-84
2021/06/07 04:54:00;;;;;;;5.75;3.83;;;15.30;99.90;;;;;;5019263;28;20416;-85
2021/06/07 04:56:26;;;;;;;4.45;3.05;;;16.80;99.90;;;;;;5003128;28;20067;-85
2021/06/07 04:58:52;;;;;;;5.28;3.33;;;18.30;98.90;;;;;;5018202;28;20099;-84
2021/06/07 05:01:18;;;;;;;4.38;2.40;;;19.80;95.90;;;;;;5017205;28;20051;-85
2021/06/07 05:03:44;;;;;;;5.95;2.55;;;20.20;93.50;;;;;;5024118;28;20419;-84
2021/06/07 05:06:10;;;;;;;5.45;2.72;;;20.40;92.70;;;;;;5024978;28;20104;-86
2021/06/07 05:08:36;;;;;;;3.85;2.30;;;20.60;92.10;;;;;;5026729;28;20516;-88
2021/06/07 05:11:02;;;;;;;3.75;2.67;;;20.50;92.20;;;;;;5038873;28;20095;-86
2021/06/07 05:13:29;;;;;;;2.90;1.92;;;20.50;92.30;;;;;;5026305;28;20098;-86
2021/06/07 05:15:55;;;;;;;3.28;2.33;;;20.50;92.70;;;;;;5012323;28;20132;-86
2021/06/07 05:18:21;;;;;;;6.10;2.60;;;20.10;93.10;;;;;;5025344;28;20037;-85
2021/06/07 05:20:48;;;;;;;5.05;2.58;;;20.10;93.40;;;;;;5022891;28;20244;-85
2021/06/07 05:23:15;;;;;;;2.90;2.50;;;19.70;94.10;;;;;;5022877;28;20571;-86
2021/06/07 05:25:42;;;;;;;3.50;2.60;;;19.70;94.70;;;;;;5003248;28;20037;-85
2021/06/07 05:28:09;;;;;;;2.88;2.15;;;19.60;95.00;;;;;;5019677;28;20118;-85
2021/06/07 05:30:37;;;;;;;4.53;2.45;;;19.60;95.20;;;;;;5024571;28;20041;-84
2021/06/07 05:33:03;;;;;;;3.83;3.10;;;19.70;95.10;;;;;;5004043;28;20548;-85
2021/06/07 05:35:37;;;;;;;3.72;2.28;;;19.70;94.70;;;;;;5023974;28;20059;-84
2021/06/07 05:38:04;;;;;;;4.72;2.60;;;19.80;94.40;;;;;;5004035;28;20076;-85
2021/06/07 05:40:31;;;;;;;4.07;2.55;;;20.00;94.20;;;;;;5003908;28;20491;-85
2021/06/07 05:42:57;;;;;;;3.33;2.17;;;20.00;94.30;;;;;;5023447;28;20828;-86
2021/06/07 05:45:24;;;;;;;5.88;2.15;;;20.40;94.30;;;;;;5011253;28;20117;-85
2021/06/07 05:47:50;;;;;;;3.63;2.10;;;20.40;93.70;;;;;;5017749;28;20037;-84
2021/06/07 05:50:19;;;;;;;3.65;2.20;;;20.70;93.50;;;;;;5006888;28;20041;-85
2021/06/07 05:52:46;;;;;;;5.05;1.98;;;20.90;93.10;;;;;;5024858;28;20034;-84
2021/06/07 05:55:14;;;;;;;6.60;1.98;;;21.10;92.60;;;;;;5004181;28;20463;-84
2021/06/07 05:58:06;;;;;;;5.55;1.90;;;21.40;92.30;;;;;;4980420;28;20052;-85
2021/06/07 06:00:35;;;;;;;6.45;2.00;;;21.60;91.80;;;;;;5026929;28;20045;-85
2021/06/07 06:03:01;;;;;;;4.50;2.17;;;21.80;90.90;;;;;;5010871;28;20037;-83
2021/06/07 06:05:27;;;;;;;5.07;1.40;;;22.10;91.10;;;;;;5015199;28;20166;-84
2021/06/07 06:08:00;;;;;;;19.20;2.45;;;22.30;90.40;;;;;;5006903;28;20041;-84
2021/06/07 06:10:48;;;;;;;3.80;1.70;;;22.40;89.00;;;;;;5037523;28;20080;-86
2021/06/07 06:13:15;;;;;;;6.28;1.60;;;22.40;88.20;;;;;;5022458;28;20361;-85
2021/06/07 06:15:41;;;;;;;5.65;1.98;;;22.40;88.50;;;;;;5005584;28;20545;-85
2021/06/07 06:18:12;;;;;;;3.45;1.20;;;22.40;86.90;;;;;;5021373;28;20041;-85
2021/06/07 06:20:39;;;;;;;2.13;1.50;;;22.80;87.20;;;;;;5005547;28;20029;-85
2021/06/07 06:23:30;;;;;;;3.88;1.55;;;22.80;85.70;;;;;;5004408;28;20381;-86
2021/06/07 06:25:56;;;;;;;3.42;1.40;;;22.90;86.50;;;;;;5000989;28;20108;-86
2021/06/07 06:28:38;;;;;;;2.05;1.30;;;23.00;83.80;;;;;;5008221;28;20065;-86
2021/06/07 06:31:06;;;;;;;2.53;1.45;;;23.00;84.10;;;;;;5023228;28;20128;-85
2021/06/07 06:33:33;;;;;;;3.45;1.90;;;23.00;83.90;;;;;;5007671;28;21403;-86
2021/06/07 06:36:25;;;;;;;3.92;2.05;;;23.10;84.30;;;;;;5023213;28;20045;-85
2021/06/07 06:38:50;;;;;;;3.00;1.77;;;23.20;84.70;;;;;;5008672;28;20117;-84
2021/06/07 06:41:16;;;;;;;2.45;1.38;;;23.20;82.70;;;;;;5023175;28;20096;-85
2021/06/07 06:43:43;;;;;;;2.30;1.20;;;23.10;81.40;;;;;;5023646;28;20091;-85
2021/06/07 06:46:09;;;;;;;3.42;0.90;;;23.20;82.00;;;;;;5020330;28;20065;-85
2021/06/07 06:48:34;;;;;;;6.85;1.63;;;23.30;81.10;;;;;;5003418;28;20076;-85
2021/06/07 06:51:02;;;;;;;2.78;0.90;;;23.40;80.10;;;;;;5023147;28;20084;-85
2021/06/07 06:53:28;;;;;;;2.15;1.02;;;23.50;80.20;;;;;;5021116;28;20065;-85
2021/06/07 06:55:54;;;;;;;4.75;1.10;;;23.60;79.20;;;;;;5007039;28;20485;-85
2021/06/07 06:58:21;;;;;;;4.95;1.05;;;23.70;79.00;;;;;;5006705;28;20026;-85
2021/06/07 07:00:48;;;;;;;1.88;0.95;;;23.90;78.50;;;;;;5020627;28;20025;-85
2021/06/07 07:03:19;;;;;;;3.83;0.90;;;23.70;77.30;;;;;;5022248;28;21251;-85
2021/06/07 07:05:46;;;;;;;4.97;1.02;;;23.80;78.00;;;;;;5024930;28;20045;-85
2021/06/07 07:08:13;;;;;;;2.25;0.77;;;23.90;78.70;;;;;;5024242;28;20034;-85
2021/06/07 07:10:42;;;;;;;2.42;1.15;;;23.80;77.40;;;;;;5023116;28;20127;-85
2021/06/07 07:13:37;;;;;;;2.00;0.88;;;24.20;74.70;;;;;;5027661;28;20041;-85
2021/06/07 07:16:22;;;;;;;4.07;0.98;;;24.20;74.80;;;;;;4982995;28;20064;-84
2021/06/07 07:18:48;;;;;;;4.30;0.80;;;24.40;74.90;;;;;;5008601;28;20041;-84
2021/06/07 07:21:14;;;;;;;2.50;1.00;;;24.70;74.10;;;;;;5028702;28;20045;-85
2021/06/07 07:23:40;;;;;;;2.58;0.95;;;24.70;73.70;;;;;;5011931;28;20046;-85
2021/06/07 07:26:18;;;;;;;1.77;0.75;;;24.80;71.70;;;;;;5029579;28;20037;-85
2021/06/07 07:28:44;;;;;;;3.72;1.55;;;24.80;72.50;;;;;;5041596;28;20048;-85
2021/06/07 07:31:10;;;;;;;6.38;0.88;;;24.70;71.80;;;;;;5021236;28;20042;-84
2021/06/07 07:33:39;;;;;;;5.68;1.15;;;24.70;71.70;;;;;;5027537;28;20045;-84
2021/06/07 07:36:15;;;;;;;2.67;1.08;;;24.70;70.00;;;;;;5007849;28;20037;-85
2021/06/07 07:38:41;;;;;;;1.77;0.73;;;24.70;70.40;;;;;;5023318;28;20041;-84
2021/06/07 07:41:06;;;;;;;4.80;1.25;;;24.80;72.00;;;;;;5008833;28;20034;-85
2021/06/07 07:43:32;;;;;;;2.95;1.13;;;24.70;69.20;;;;;;5024431;28;21042;-84
2021/06/07 07:45:59;;;;;;;2.63;1.40;;;24.50;68.00;;;;;;5007498;28;20593;-84
2021/06/07 07:48:30;;;;;;;5.13;1.60;;;24.60;70.50;;;;;;5021086;28;20041;-85
2021/06/07 07:50:56;;;;;;;2.92;1.60;;;24.50;69.90;;;;;;5003936;28;20072;-84
2021/06/07 07:53:39;;;;;;;4.97;1.83;;;24.50;70.00;;;;;;5023080;28;20068;-84
2021/06/07 07:56:39;;;;;;;4.57;2.28;;;24.60;71.20;;;;;;4983621;28;20057;-84
2021/06/07 07:59:28;;;;;;;2.33;1.83;;;24.60;70.30;;;;;;5010738;28;20048;-84
2021/06/07 08:05:36;;;;;;;3.20;1.80;;;24.60;71.20;;;;;;5023729;28;20044;-85
2021/06/07 08:08:04;;;;;;;4.85;2.50;;;24.60;71.60;;;;;;5026822;28;20037;-83
2021/06/07 08:10:57;;;;;;;;;;;;;;;;;;;;;
2021/06/07 08:14:22;;;;;;;3.72;1.90;;;24.40;72.80;;;;;;4962041;28;20107;-86
2021/06/07 08:16:49;;;;;;;4.18;1.58;;;24.50;72.00;;;;;;4954948;28;20560;-86
2021/06/07 08:19:15;;;;;;;3.80;1.95;;;24.80;72.50;;;;;;5019507;28;20091;-86
2021/06/07 08:21:41;;;;;;;3.50;1.65;;;24.90;71.90;;;;;;5012803;28;20483;-86
2021/06/07 08:24:08;;;;;;;3.55;2.08;;;24.70;72.60;;;;;;5014733;28;20042;-85
2021/06/07 08:26:33;;;;;;;3.10;1.70;;;24.80;73.10;;;;;;5006281;28;20038;-86
2021/06/07 08:28:59;;;;;;;5.47;1.70;;;24.70;72.10;;;;;;5030978;28;20818;-86
2021/06/07 08:31:26;;;;;;;2.90;1.63;;;24.60;72.70;;;;;;5026745;28;20037;-86
2021/06/07 08:33:52;;;;;;;3.40;1.70;;;24.80;74.20;;;;;;5032454;28;20730;-86
2021/06/07 08:44:28;;;;;;;8.75;2.15;;;24.30;70.00;;;;;;4984064;28;20190;-86
2021/06/07 08:59:07;;;;;;;3.42;2.08;;;24.30;66.40;;;;;;4852186;29;20091;-85
2021/06/07 09:02:13;;;;;;;4.45;1.80;;;23.90;69.00;;;;;;4913587;29;20199;-85
2021/06/07 09:05:39;;;;;;;4.53;2.63;;;23.90;74.60;;;;;;4933981;28;20061;-85
2021/06/07 09:12:52;;;;;;;4.70;2.58;;;24.10;74.70;;;;;;4935759;29;20062;-84
2021/06/07 09:20:19;;;;;;;3.20;1.73;;;24.50;75.70;;;;;;4861301;29;20036;-85
2021/06/07 09:22:53;;;;;;;3.67;2.40;;;24.40;66.50;;;;;;4810922;29;20077;-85
2021/06/07 09:25:29;;;;;;;4.03;2.38;;;24.30;71.70;;;;;;4859777;29;20053;-84
2021/06/07 09:43:59;;;;;;;3.20;1.92;;;24.10;73.30;;;;;;4909527;29;20070;-84
2021/06/07 09:47:41;;;;;;;3.45;1.75;;;24.20;69.10;;;;;;4903928;29;20055;-84
2021/06/07 09:51:38;;;;;;;3.22;1.65;;;23.90;66.80;;;;;;4894405;29;20056;-84
2021/06/07 09:55:32;;;;;;;7.30;1.90;;;23.90;72.20;;;;;;4889404;29;20063;-84
2021/06/07 09:58:56;;;;;;;3.40;1.50;;;23.70;69.00;;;;;;4882572;29;20207;-85
2021/06/07 10:02:53;;;;;;;2.65;1.58;;;23.60;74.90;;;;;;4902488;29;20072;-85
2021/06/07 10:11:12;;;;;;;4.18;1.48;;;23.80;68.10;;;;;;4914634;29;20047;-84
2021/06/07 10:15:19;;;;;;;7.30;1.30;;;23.80;71.00;;;;;;4909075;29;20058;-83
2021/06/07 10:23:03;;;;;;;3.78;1.38;;;23.80;72.10;;;;;;4797000;29;20067;-84
2021/06/07 10:25:44;;;;;;;2.72;1.60;;;23.70;72.60;;;;;;4741650;29;20059;-82
2021/06/07 10:28:11;;;;;;;5.90;2.15;;;23.80;68.50;;;;;;4926755;28;20141;-83
2021/06/07 10:30:41;;;;;;;3.53;1.55;;;23.90;71.30;;;;;;4942265;28;20039;-84
2021/06/07 10:33:34;;;;;;;4.97;1.55;;;24.00;71.00;;;;;;4942157;28;20110;-84
2021/06/07 10:36:21;;;;;;;1.92;1.08;;;24.10;68.40;;;;;;4920368;28;20252;-83
2021/06/07 10:38:51;;;;;;;4.60;1.50;;;24.20;68.20;;;;;;4972633;28;20104;-84
2021/06/07 10:41:26;;;;;;;8.02;2.42;;;24.30;69.10;;;;;;5009167;28;20380;-84
2021/06/07 10:43:58;;;;;;;7.95;2.15;;;24.20;67.70;;;;;;5022756;28;20112;-84
2021/06/07 10:46:29;;;;;;;13.13;2.70;;;24.20;70.90;;;;;;5021972;28;20042;-84
2021/06/07 10:48:56;;;;;;;3.22;1.42;;;24.30;70.50;;;;;;5022288;28;20034;-84
2021/06/07 10:51:28;;;;;;;2.47;1.60;;;24.40;68.90;;;;;;5046650;28;20079;-84
2021/06/07 10:54:33;;;;;;;2.25;1.25;;;24.40;66.20;;;;;;5031168;28;20120;-84
2021/06/07 10:57:26;;;;;;;3.50;1.40;;;24.30;66.00;;;;;;5035354;28;20041;-83
2021/06/07 11:00:23;;;;;;;3.13;1.27;;;24.30;67.50;;;;;;5008011;28;20037;-83
2021/06/07 11:02:52;;;;;;;2.85;1.13;;;24.10;62.20;;;;;;4977694;28;20092;-83
2021/06/07 11:05:27;;;;;;;1.75;0.82;;;24.00;62.80;;;;;;5004081;28;20048;-83
2021/06/07 11:08:09;;;;;;;2.97;0.70;;;24.00;69.10;;;;;;5004068;28;20069;-83
2021/06/07 11:10:48;;;;;;;2.90;1.52;;;24.20;70.40;;;;;;5037527;28;20045;-84
2021/06/07 11:13:19;;;;;;;1.55;0.88;;;24.30;68.90;;;;;;4991848;28;20061;-83
2021/06/07 11:15:56;;;;;;;3.88;1.00;;;24.50;68.10;;;;;;5008707;28;20832;-84
2021/06/07 11:18:35;;;;;;;1.77;0.90;;;24.60;70.30;;;;;;5023044;28;20048;-83
2021/06/07 11:21:21;;;;;;;2.03;0.73;;;24.70;68.60;;;;;;5020730;28;20041;-84
2021/06/07 11:23:46;;;;;;;1.10;0.50;;;25.00;68.00;;;;;;5020434;28;20043;-83
2021/06/07 11:26:18;;;;;;;3.50;0.80;;;24.70;61.90;;;;;;5019513;28;20488;-82
2021/06/07 11:29:04;;;;;;;1.48;0.60;;;24.60;64.50;;;;;;5018130;28;20480;-84
2021/06/07 11:31:33;;;;;;;;;;;24.80;60.60;;;;;;5022196;28;20037;-83
2021/06/07 11:34:00;;;;;;;4.55;1.35;;;24.70;61.60;;;;;;5034370;28;19931;-84
2021/06/07 11:36:55;;;;;;;1.95;0.85;;;24.60;60.60;;;;;;5003408;28;20084;-84
2021/06/07 11:39:47;;;;;;;8.38;1.27;;;24.50;62.80;;;;;;5018569;28;20045;-83
2021/06/07 11:42:16;;;;;;;3.63;0.88;;;24.60;59.40;;;;;;5019325;28;20037;-84
2021/06/07 11:45:09;;;;;;;1.55;0.80;;;24.50;62.40;;;;;;5006410;28;20113;-83
2021/06/07 11:47:40;;;;;;;2.17;0.80;;;24.60;63.60;;;;;;5017295;28;20518;-84
2021/06/07 11:50:13;;;;;;;2.55;0.80;;;24.50;63.20;;;;;;5003709;28;20037;-84
2021/06/07 11:52:47;;;;;;;5.65;1.17;;;24.50;66.10;;;;;;5006310;28;20033;-85
2021/06/07 11:55:34;;;;;;;4.10;1.50;;;24.40;61.90;;;;;;5001334;28;20041;-84
2021/06/07 11:58:34;;;;;;;1.25;0.93;;;24.40;59.70;;;;;;5002543;28;20072;-84
2021/06/07 12:01:19;;;;;;;6.85;1.08;;;24.30;63.10;;;;;;5003145;28;20037;-84
2021/06/07 12:03:46;;;;;;;3.05;0.70;;;24.40;65.40;;;;;;5021565;28;20835;-84
2021/06/07 12:06:12;;;;;;;1.58;0.65;;;24.40;59.20;;;;;;5015485;28;20046;-83
2021/06/07 12:08:39;;;;;;;3.25;0.80;;;24.30;57.40;;;;;;5020741;28;20030;-84
2021/06/07 12:11:05;;;;;;;2.47;1.00;;;24.10;58.30;;;;;;5006716;28;20790;-82
2021/06/07 12:13:33;;;;;;;2.22;1.13;;;24.20;63.00;;;;;;5004693;28;20049;-85
2021/06/07 12:16:04;;;;;;;1.58;0.82;;;24.20;60.80;;;;;;5018182;28;20045;-84
2021/06/07 12:18:53;;;;;;;5.47;1.13;;;24.20;60.70;;;;;;5006033;28;20034;-84
2021/06/07 12:21:25;;;;;;;3.47;1.20;;;24.20;61.90;;;;;;5009712;28;20045;-83
2021/06/07 12:24:10;;;;;;;1.45;0.80;;;24.20;63.90;;;;;;5022093;28;20136;-84
2021/06/07 12:29:31;;;;;;;2.17;1.15;;;24.20;63.10;;;;;;5021507;28;20128;-84
2021/06/07 12:32:24;;;;;;;1.95;1.13;;;24.10;62.60;;;;;;5036412;28;20033;-83
2021/06/07 12:35:02;;;;;;;1.42;0.80;;;24.20;64.10;;;;;;5035438;28;20044;-85
2021/06/07 12:37:44;;;;;;;2.53;1.00;;;24.20;58.50;;;;;;5022196;28;20047;-84
2021/06/07 12:40:35;;;;;;;2.33;0.77;;;24.20;60.00;;;;;;5022463;28;20030;-83
2021/06/07 12:43:06;;;;;;;1.10;0.55;;;24.30;62.70;;;;;;5020042;28;20050;-84
2021/06/07 12:45:44;;;;;;;3.65;0.50;;;24.10;61.00;;;;;;5002486;28;20041;-84
2021/06/07 12:48:31;;;;;;;2.40;0.63;;;24.20;64.60;;;;;;5018609;28;20060;-83
2021/06/07 12:50:59;;;;;;;3.70;0.50;;;24.40;61.90;;;;;;5003200;28;20592;-84
2021/06/07 12:53:28;;;;;;;4.60;0.77;;;24.50;63.20;;;;;;5000417;28;20037;-85
2021/06/07 12:56:03;;;;;;;3.78;1.25;;;24.40;60.00;;;;;;5020454;28;20039;-84
2021/06/07 12:58:32;;;;;;;3.75;1.55;;;24.40;58.00;;;;;;5006066;28;20033;-84
2021/06/07 13:01:02;;;;;;;1.45;0.77;;;24.40;57.40;;;;;;5005729;28;20597;-84
2021/06/07 13:03:30;;;;;;;2.92;0.65;;;24.20;61.00;;;;;;5020171;28;20037;-84
2021/06/07 13:06:05;;;;;;;2.03;0.85;;;24.00;58.40;;;;;;5019262;28;20488;-83
2021/06/07 13:08:35;;;;;;;1.27;0.45;;;24.00;59.30;;;;;;5002998;28;20033;-84
2021/06/07 13:11:04;;;;;;;1.90;0.60;;;24.00;62.90;;;;;;5009267;28;20480;-84
2021/06/07 13:13:36;;;;;;;1.38;0.50;;;24.10;62.60;;;;;;5019281;28;20499;-84
2021/06/07 13:16:14;;;;;;;2.25;0.90;;;24.30;62.60;;;;;;5000443;28;20052;-83
2021/06/07 13:18:57;;;;;;;1.65;0.70;;;24.40;61.70;;;;;;5019388;28;20187;-84
2021/06/07 13:21:44;;;;;;;4.30;1.13;;;24.40;60.00;;;;;;5005036;28;20079;-84
2021/06/07 13:24:20;;;;;;;3.08;0.77;;;24.50;61.40;;;;;;4998463;28;20116;-83
2021/06/07 13:26:54;;;;;;;2.05;0.80;;;24.60;59.60;;;;;;5020824;28;20049;-84
2021/06/07 13:29:24;;;;;;;2.35;1.02;;;24.50;58.00;;;;;;5003982;28;20068;-84
2021/06/07 13:32:07;;;;;;;1.58;0.70;;;24.30;59.20;;;;;;5004023;28;20037;-83
2021/06/07 13:34:50;;;;;;;1.77;0.75;;;24.20;61.30;;;;;;5016522;28;20496;-84
2021/06/07 13:37:33;;;;;;;3.25;0.52;;;24.30;59.70;;;;;;5017440;28;20041;-84
2021/06/07 13:40:21;;;;;;;2.08;0.73;;;24.40;62.90;;;;;;5000926;28;20033;-83
2021/06/07 13:43:05;;;;;;;2.67;0.88;;;24.40;58.90;;;;;;5016769;28;20033;-84
2021/06/07 13:45:37;;;;;;;2.08;0.80;;;24.40;61.00;;;;;;5034763;28;20049;-84
2021/06/07 13:48:12;;;;;;;1.02;0.70;;;24.40;58.80;;;;;;5016448;28;20116;-83
2021/06/07 13:50:54;;;;;;;1.95;0.80;;;24.40;58.30;;;;;;5004670;28;20164;-84
2021/06/07 13:53:29;;;;;;;3.42;1.15;;;24.30;60.30;;;;;;4998880;28;20033;-84
2021/06/07 13:55:56;;;;;;;4.15;0.80;;;24.20;59.40;;;;;;5004870;28;20053;-84
2021/06/07 13:58:23;;;;;;;4.97;0.85;;;24.10;59.20;;;;;;5006593;28;20033;-82
2021/06/07 14:00:51;;;;;;;1.60;0.70;;;23.90;58.50;;;;;;5003087;28;20034;-85
2021/06/07 14:03:22;;;;;;;3.63;1.00;;;23.80;56.80;;;;;;5035956;28;20839;-84
2021/06/07 14:05:52;;;;;;;3.28;0.70;;;23.60;56.20;;;;;;5004212;28;20045;-84
2021/06/07 14:08:24;;;;;;;2.72;0.70;;;23.50;58.00;;;;;;5018357;28;20125;-85
2021/06/07 14:10:51;;;;;;;6.38;0.77;;;23.60;58.30;;;;;;5004393;28;20049;-85
2021/06/07 14:13:19;;;;;;;0.88;0.50;;;23.60;58.70;;;;;;5018791;28;20567;-84
2021/06/07 14:15:45;;;;;;;4.80;0.68;;;23.50;58.10;;;;;;5018727;28;20041;-83
2021/06/07 14:18:11;;;;;;;2.15;0.50;;;23.70;57.60;;;;;;4986302;28;20136;-84
2021/06/07 14:20:39;;;;;;;1.10;0.57;;;23.60;60.30;;;;;;5022326;28;20180;-84
2021/06/07 14:25:49;;;;;;;2.35;0.73;;;23.50;57.70;;;;;;5021179;28;20057;-84
2021/06/07 14:28:15;;;;;;;1.58;0.60;;;23.50;57.40;;;;;;5009979;28;20045;-84